Time;durP1;ratioP1;P1;durP2;ratioP2;P2;SDS_P1;SDS_P2;PMS_P1;PMS_P2;Temp;Humidity;BMP_temperature;BMP_pressure;BME280_temperature;BME280_humidity;BME280_pressure;Samples;Min_cycle;Max_cycle;Signal;HPM_P1;HPM_P2
2023/12/22 00:01:41;;;;;;;13.25;2.63;;;10.70;99.90;;;;;;5146144;28;20098;-48
2023/12/22 00:04:07;;;;;;;14.23;2.10;;;10.70;99.90;;;;;;5147406;27;20030;-49
2023/12/22 00:06:33;;;;;;;11.95;2.45;;;10.80;99.90;;;;;;5150249;27;20095;-48
2023/12/22 00:08:59;;;;;;;10.45;2.10;;;10.80;99.90;;;;;;5149729;27;20058;-50
2023/12/22 00:11:24;;;;;;;13.05;2.20;;;10.80;99.90;;;;;;5150113;27;20064;-49
2023/12/22 00:13:50;;;;;;;7.88;2.10;;;10.80;99.90;;;;;;5149855;27;20034;-48
2023/12/22 00:16:16;;;;;;;8.70;2.25;;;10.80;99.90;;;;;;5149908;27;20027;-48
2023/12/22 00:18:41;;;;;;;10.23;1.90;;;10.80;99.90;;;;;;5149879;27;20195;-48
2023/12/22 00:21:11;;;;;;;7.15;1.65;;;10.80;99.90;;;;;;5149771;27;20333;-48
2023/12/22 00:23:37;;;;;;;8.43;1.77;;;10.80;99.90;;;;;;5131375;27;20062;-48
2023/12/22 00:26:03;;;;;;;12.18;2.28;;;10.80;99.90;;;;;;5149197;27;20064;-49
2023/12/22 00:28:31;;;;;;;4.35;1.13;;;10.80;99.90;;;;;;5149690;27;20023;-48
2023/12/22 00:30:57;;;;;;;6.45;1.50;;;10.80;99.90;;;;;;5149910;27;20030;-48
2023/12/22 00:33:23;;;;;;;6.85;1.85;;;10.80;99.90;;;;;;5149522;27;20076;-47
2023/12/22 00:35:48;;;;;;;7.00;1.33;;;10.90;99.90;;;;;;5148502;27;20223;-48
2023/12/22 00:38:14;;;;;;;8.57;1.65;;;10.80;99.90;;;;;;5149201;27;20023;-48
2023/12/22 00:40:40;;;;;;;8.30;1.60;;;10.80;99.90;;;;;;5148199;27;20189;-48
2023/12/22 00:43:05;;;;;;;8.52;1.75;;;10.80;99.90;;;;;;5149248;27;20180;-48
2023/12/22 00:45:31;;;;;;;6.72;2.00;;;10.90;99.90;;;;;;5149241;27;20094;-48
2023/12/22 00:47:57;;;;;;;8.23;2.10;;;10.80;99.90;;;;;;5149166;27;20078;-49
2023/12/22 00:50:23;;;;;;;7.75;1.77;;;10.80;99.90;;;;;;5149300;27;20064;-48
2023/12/22 00:52:48;;;;;;;7.57;1.80;;;10.80;99.90;;;;;;5148770;27;20046;-51
2023/12/22 00:55:14;;;;;;;10.43;2.05;;;10.80;99.90;;;;;;5148190;27;20075;-51
2023/12/22 00:57:40;;;;;;;11.65;2.25;;;10.90;99.90;;;;;;5148640;27;20039;-51
2023/12/22 01:00:10;;;;;;;7.47;1.60;;;10.80;99.90;;;;;;5147939;27;20023;-52
2023/12/22 01:02:36;;;;;;;;;;;10.90;99.90;;;;;;5149412;27;20046;-51
2023/12/22 01:05:01;;;;;;;13.70;2.28;;;10.90;99.90;;;;;;5148716;27;20160;-50
2023/12/22 01:07:27;;;;;;;11.07;1.70;;;10.90;99.90;;;;;;5147504;27;20230;-50
2023/12/22 01:09:53;;;;;;;9.85;1.88;;;10.90;99.90;;;;;;5149103;27;20040;-49
2023/12/22 01:12:19;;;;;;;10.38;1.70;;;10.90;99.90;;;;;;5148396;27;20296;-51
2023/12/22 01:14:45;;;;;;;6.15;1.60;;;10.90;99.90;;;;;;5148100;27;20034;-48
2023/12/22 01:17:11;;;;;;;7.97;1.52;;;10.90;99.90;;;;;;5146767;27;20064;-49
2023/12/22 01:19:36;;;;;;;5.25;1.65;;;10.90;99.90;;;;;;5148544;27;20027;-48
2023/12/22 01:22:02;;;;;;;8.27;1.63;;;10.90;99.90;;;;;;5147405;27;20027;-48
2023/12/22 01:24:28;;;;;;;8.00;1.80;;;11.00;99.90;;;;;;5148545;27;20019;-48
2023/12/22 01:26:53;;;;;;;9.23;1.95;;;11.00;99.90;;;;;;5148453;27;20045;-48
2023/12/22 01:29:19;;;;;;;8.68;1.80;;;11.00;99.90;;;;;;5148446;27;20075;-48
2023/12/22 01:31:45;;;;;;;6.40;1.60;;;11.00;99.90;;;;;;5148395;27;20034;-47
2023/12/22 01:34:11;;;;;;;8.88;1.60;;;11.00;99.90;;;;;;5148426;27;20027;-49
2023/12/22 01:36:37;;;;;;;10.32;1.88;;;11.00;99.90;;;;;;5148340;27;20031;-49
2023/12/22 01:39:02;;;;;;;9.70;2.22;;;11.00;99.90;;;;;;5147346;27;20038;-51
2023/12/22 01:41:28;;;;;;;9.45;1.60;;;11.00;99.90;;;;;;5148228;27;20026;-51
2023/12/22 01:43:54;;;;;;;11.07;2.20;;;11.10;99.90;;;;;;5147622;27;20039;-51
2023/12/22 01:46:20;;;;;;;8.30;1.73;;;11.10;99.90;;;;;;5148146;27;20019;-51
2023/12/22 01:48:45;;;;;;;6.53;1.70;;;11.10;99.90;;;;;;5129859;27;20084;-50
2023/12/22 01:51:11;;;;;;;10.15;1.55;;;11.10;99.90;;;;;;5129752;27;20031;-51
2023/12/22 01:53:37;;;;;;;7.63;1.52;;;11.20;99.90;;;;;;5147023;27;20031;-51
2023/12/22 01:56:03;;;;;;;7.93;1.90;;;11.20;99.90;;;;;;5130038;27;20068;-50
2023/12/22 01:58:29;;;;;;;8.50;1.60;;;11.20;99.90;;;;;;5147857;27;20034;-51
2023/12/22 02:00:55;;;;;;;7.50;1.23;;;11.20;99.90;;;;;;5129642;27;20023;-51
2023/12/22 02:03:21;;;;;;;8.00;1.88;;;11.30;99.90;;;;;;5129589;27;20023;-50
2023/12/22 02:05:46;;;;;;;11.60;1.90;;;11.30;99.90;;;;;;5147744;27;20027;-51
2023/12/22 02:08:12;;;;;;;7.82;1.92;;;11.30;99.90;;;;;;5146424;27;20107;-52
2023/12/22 02:10:38;;;;;;;7.45;1.60;;;11.30;99.90;;;;;;5146713;27;20312;-51
2023/12/22 02:13:04;;;;;;;11.05;1.52;;;11.30;99.90;;;;;;5147717;27;20113;-51
2023/12/22 02:15:31;;;;;;;9.02;1.60;;;11.30;99.90;;;;;;5146310;27;20071;-50
2023/12/22 02:18:03;;;;;;;3.63;1.33;;;11.30;99.90;;;;;;5146651;27;20080;-50
2023/12/22 02:20:29;;;;;;;6.70;1.20;;;11.20;99.90;;;;;;5147566;27;20329;-49
2023/12/22 02:22:55;;;;;;;5.38;1.40;;;11.20;99.90;;;;;;5147261;27;20023;-50
2023/12/22 02:25:21;;;;;;;4.70;1.00;;;11.20;99.90;;;;;;5147555;27;20168;-50
2023/12/22 02:27:49;;;;;;;4.45;1.13;;;11.10;99.90;;;;;;5146926;27;20148;-50
2023/12/22 02:30:21;;;;;;;2.33;0.90;;;11.10;99.90;;;;;;5147316;27;20072;-49
2023/12/22 02:32:48;;;;;;;4.88;1.30;;;11.00;99.90;;;;;;5146926;27;20229;-50
2023/12/22 02:35:20;;;;;;;3.40;1.17;;;11.00;99.90;;;;;;5146140;27;20038;-47
2023/12/22 02:37:46;;;;;;;5.75;1.20;;;11.00;99.90;;;;;;5147060;27;20019;-49
2023/12/22 02:40:12;;;;;;;6.43;1.38;;;11.00;99.90;;;;;;5146137;27;20301;-50
2023/12/22 02:42:38;;;;;;;6.82;1.30;;;11.00;99.90;;;;;;5147066;27;20039;-49
2023/12/22 02:45:05;;;;;;;4.30;1.20;;;11.00;99.90;;;;;;5145958;27;20023;-47
2023/12/22 02:47:32;;;;;;;5.85;1.20;;;11.00;99.90;;;;;;5145850;27;20051;-50
2023/12/22 02:49:57;;;;;;;5.07;1.20;;;11.00;99.90;;;;;;5146925;27;20027;-50
2023/12/22 02:52:23;;;;;;;5.88;1.27;;;11.00;99.90;;;;;;5146971;27;20078;-50
2023/12/22 02:54:49;;;;;;;8.77;1.20;;;11.00;99.90;;;;;;5146623;27;20084;-50
2023/12/22 02:57:14;;;;;;;9.63;1.45;;;11.00;99.90;;;;;;5146910;27;20063;-50
2023/12/22 02:59:40;;;;;;;9.93;1.67;;;11.00;99.90;;;;;;5146656;27;20027;-51
2023/12/22 03:02:06;;;;;;;11.23;1.83;;;11.00;99.90;;;;;;5145586;27;20075;-51
2023/12/22 03:04:31;;;;;;;9.93;1.60;;;11.00;99.90;;;;;;5146841;27;20034;-48
2023/12/22 03:06:57;;;;;;;8.00;1.90;;;11.00;99.90;;;;;;5146584;28;20027;-51
2023/12/22 03:09:23;;;;;;;7.85;1.65;;;11.00;99.90;;;;;;5146528;28;20039;-47
2023/12/22 03:11:49;;;;;;;6.53;1.60;;;11.00;99.90;;;;;;5146710;28;20034;-47
2023/12/22 03:14:14;;;;;;;7.30;1.60;;;11.00;99.90;;;;;;5146949;28;20047;-47
2023/12/22 03:16:40;;;;;;;10.57;1.67;;;11.00;99.90;;;;;;5146761;28;20058;-47
2023/12/22 03:19:09;;;;;;;6.85;1.70;;;11.00;99.90;;;;;;5146504;28;20157;-47
2023/12/22 03:21:34;;;;;;;8.32;1.42;;;11.00;99.90;;;;;;5145670;28;20031;-47
2023/12/22 03:24:00;;;;;;;8.40;1.65;;;11.00;99.90;;;;;;5146561;28;20046;-47
2023/12/22 03:26:29;;;;;;;12.00;2.60;;;11.00;99.90;;;;;;5146692;28;20023;-47
2023/12/22 03:28:54;;;;;;;9.05;1.27;;;11.10;99.90;;;;;;5145485;28;20102;-48
2023/12/22 03:31:20;;;;;;;5.97;1.45;;;11.00;99.90;;;;;;5146562;28;20024;-47
2023/12/22 03:33:46;;;;;;;6.50;1.20;;;11.00;99.90;;;;;;5146474;28;20023;-48
2023/12/22 03:36:11;;;;;;;8.57;1.40;;;11.00;99.90;;;;;;5145551;28;20019;-48
2023/12/22 03:38:37;;;;;;;5.22;1.02;;;11.00;99.90;;;;;;5146612;27;20110;-47
2023/12/22 03:41:03;;;;;;;6.97;1.42;;;10.90;99.90;;;;;;5149396;27;20030;-48
2023/12/22 03:43:31;;;;;;;5.38;1.10;;;10.90;99.90;;;;;;5150371;27;20034;-47
2023/12/22 03:45:56;;;;;;;7.03;1.30;;;11.00;99.90;;;;;;5150432;27;20033;-47
2023/12/22 03:48:22;;;;;;;6.13;1.30;;;10.90;99.90;;;;;;5149377;27;20042;-49
2023/12/22 03:50:48;;;;;;;7.70;1.33;;;11.00;99.90;;;;;;5149982;27;20102;-46
2023/12/22 03:53:13;;;;;;;10.30;1.42;;;11.00;99.90;;;;;;5150234;27;20154;-47
2023/12/22 03:55:39;;;;;;;4.20;1.30;;;11.00;99.90;;;;;;5150154;27;20030;-47
2023/12/22 03:58:07;;;;;;;8.60;1.50;;;10.90;99.90;;;;;;5150490;27;20086;-47
2023/12/22 04:00:32;;;;;;;7.70;1.48;;;11.00;99.90;;;;;;5149269;27;20038;-47
2023/12/22 04:02:58;;;;;;;11.50;2.55;;;10.90;99.90;;;;;;5149789;27;20035;-47
2023/12/22 04:05:24;;;;;;;6.47;1.33;;;10.90;99.90;;;;;;5150127;27;20019;-47
2023/12/22 04:07:49;;;;;;;10.05;1.77;;;10.90;99.90;;;;;;5149638;27;20043;-47
2023/12/22 04:10:17;;;;;;;10.38;1.70;;;10.80;99.90;;;;;;5149590;27;20058;-47
2023/12/22 04:12:43;;;;;;;10.10;1.95;;;10.80;99.90;;;;;;5150064;27;20180;-46
2023/12/22 04:15:09;;;;;;;7.93;1.58;;;10.80;99.90;;;;;;5149858;27;20090;-46
2023/12/22 04:17:34;;;;;;;15.23;2.35;;;10.80;99.90;;;;;;5149983;27;20169;-46
2023/12/22 04:20:00;;;;;;;13.15;2.08;;;10.80;99.90;;;;;;5150026;27;20023;-47
2023/12/22 04:22:26;;;;;;;11.25;2.35;;;10.80;99.90;;;;;;5149176;27;20042;-47
2023/12/22 04:24:52;;;;;;;14.00;1.98;;;10.80;99.90;;;;;;5148573;27;20027;-47
2023/12/22 04:27:17;;;;;;;14.48;2.20;;;10.90;99.90;;;;;;5149528;27;20164;-46
2023/12/22 04:29:43;;;;;;;9.15;1.95;;;10.90;99.90;;;;;;5149635;27;20277;-47
2023/12/22 04:32:09;;;;;;;12.93;1.95;;;10.90;99.90;;;;;;5149606;27;20063;-50
2023/12/22 04:34:35;;;;;;;17.45;2.35;;;11.00;99.90;;;;;;5149654;27;20054;-50
2023/12/22 04:37:00;;;;;;;12.70;1.95;;;11.00;99.90;;;;;;5149440;27;20094;-51
2023/12/22 04:39:26;;;;;;;11.77;2.30;;;11.00;99.90;;;;;;5148415;27;20026;-50
2023/12/22 04:41:52;;;;;;;11.77;2.17;;;11.00;99.90;;;;;;5148442;27;20019;-50
2023/12/22 04:44:17;;;;;;;9.68;2.10;;;11.00;99.90;;;;;;5149360;27;20181;-47
2023/12/22 04:46:43;;;;;;;11.10;2.05;;;11.00;99.90;;;;;;5149355;27;20015;-49
2023/12/22 04:49:08;;;;;;;12.45;2.38;;;11.10;99.90;;;;;;5148376;27;20078;-48
2023/12/22 04:51:34;;;;;;;14.82;2.17;;;11.00;99.90;;;;;;5148957;27;20027;-53
2023/12/22 04:54:00;;;;;;;9.93;2.05;;;11.00;99.90;;;;;;5148736;27;20083;-47
2023/12/22 04:56:26;;;;;;;15.75;2.47;;;11.00;99.90;;;;;;5148654;27;20027;-47
2023/12/22 04:58:52;;;;;;;11.88;2.78;;;11.00;99.90;;;;;;5148384;27;20059;-50
2023/12/22 05:01:18;;;;;;;10.93;2.63;;;10.90;99.90;;;;;;5148102;27;20272;-47
2023/12/22 05:03:44;;;;;;;14.30;2.13;;;10.90;99.90;;;;;;5148864;27;20023;-49
2023/12/22 05:06:09;;;;;;;12.40;1.60;;;10.90;99.90;;;;;;5147904;27;20019;-47
2023/12/22 05:08:35;;;;;;;13.82;2.10;;;11.00;99.90;;;;;;5148282;27;20096;-48
2023/12/22 05:11:01;;;;;;;10.98;1.70;;;11.00;99.90;;;;;;5148463;27;20027;-47
2023/12/22 05:13:26;;;;;;;12.77;2.10;;;11.00;99.90;;;;;;5147620;27;20038;-49
2023/12/22 05:15:52;;;;;;;28.92;2.55;;;11.00;99.90;;;;;;5148705;27;20296;-49
2023/12/22 05:18:18;;;;;;;13.95;1.98;;;11.00;99.90;;;;;;5148988;27;20011;-48
2023/12/22 05:20:44;;;;;;;10.10;2.20;;;11.00;99.90;;;;;;5147702;27;20031;-47
2023/12/22 05:23:09;;;;;;;12.00;2.13;;;11.00;99.90;;;;;;5148647;27;20083;-49
2023/12/22 05:25:35;;;;;;;10.80;2.10;;;11.00;99.90;;;;;;5148179;27;20027;-47
2023/12/22 05:28:01;;;;;;;10.35;2.03;;;11.00;99.90;;;;;;5148021;27;20034;-48
2023/12/22 05:30:26;;;;;;;10.63;2.33;;;11.00;99.90;;;;;;5147306;27;20031;-50
2023/12/22 05:32:53;;;;;;;13.23;1.85;;;10.90;99.90;;;;;;5147309;27;20094;-48
2023/12/22 05:35:18;;;;;;;10.57;1.88;;;10.90;99.90;;;;;;5148301;27;20057;-50
2023/12/22 05:37:44;;;;;;;10.77;1.98;;;10.80;99.90;;;;;;5148193;27;20047;-53
2023/12/22 05:40:11;;;;;;;14.27;2.15;;;10.90;99.90;;;;;;5147785;27;20103;-49
2023/12/22 05:42:37;;;;;;;14.45;2.72;;;10.80;99.90;;;;;;5148160;27;20285;-51
2023/12/22 05:45:03;;;;;;;12.07;2.22;;;10.80;99.90;;;;;;5148117;27;20035;-50
2023/12/22 05:47:29;;;;;;;8.95;1.75;;;10.80;99.90;;;;;;5147932;27;20047;-50
2023/12/22 05:49:54;;;;;;;13.98;2.42;;;10.80;99.90;;;;;;5148104;27;20317;-50
2023/12/22 05:52:20;;;;;;;11.98;1.95;;;10.80;99.90;;;;;;5148067;27;20076;-50
2023/12/22 05:54:45;;;;;;;10.32;1.77;;;10.80;99.90;;;;;;5148053;27;20276;-49
2023/12/22 05:57:12;;;;;;;9.85;1.60;;;10.80;99.90;;;;;;5147811;27;20023;-50
2023/12/22 05:59:38;;;;;;;11.85;1.80;;;10.80;99.90;;;;;;5147816;27;20038;-47
2023/12/22 06:02:03;;;;;;;9.77;1.67;;;10.70;99.90;;;;;;5146607;27;20080;-47
2023/12/22 06:04:29;;;;;;;10.05;2.03;;;10.80;99.90;;;;;;5147702;27;20061;-47
2023/12/22 06:06:55;;;;;;;12.05;1.77;;;10.80;99.90;;;;;;5147310;27;20034;-46
2023/12/22 06:09:21;;;;;;;12.55;2.00;;;10.80;99.90;;;;;;5147328;27;20162;-47
2023/12/22 06:11:47;;;;;;;16.13;1.90;;;10.80;99.90;;;;;;5147246;27;20227;-48
2023/12/22 06:14:13;;;;;;;8.43;1.92;;;10.80;99.90;;;;;;5146580;27;20031;-49
2023/12/22 06:16:39;;;;;;;8.98;2.10;;;10.80;99.90;;;;;;5147486;27;20056;-49
2023/12/22 06:19:05;;;;;;;14.35;2.88;;;10.80;99.90;;;;;;5147347;27;20268;-49
2023/12/22 06:21:30;;;;;;;13.90;2.17;;;10.80;99.90;;;;;;5147193;27;20078;-47
2023/12/22 06:23:56;;;;;;;11.75;1.90;;;10.80;99.90;;;;;;5147345;27;20152;-47
2023/12/22 06:26:22;;;;;;;16.35;3.38;;;10.80;99.90;;;;;;5146283;27;20019;-51
2023/12/22 06:28:47;;;;;;;8.23;1.83;;;10.80;99.90;;;;;;5147034;27;20035;-50
2023/12/22 06:31:20;;;;;;;9.02;2.25;;;10.90;99.90;;;;;;5147004;27;20120;-47
2023/12/22 06:33:49;;;;;;;17.30;2.33;;;10.90;99.90;;;;;;5147146;27;20034;-49
2023/12/22 06:36:22;;;;;;;16.53;2.20;;;10.80;99.90;;;;;;5146200;27;20090;-48
2023/12/22 06:38:48;;;;;;;12.18;1.85;;;10.80;99.90;;;;;;5146809;27;20571;-48
2023/12/22 06:41:24;;;;;;;10.80;2.42;;;10.90;99.90;;;;;;5146841;27;20101;-48
2023/12/22 06:43:50;;;;;;;11.27;1.63;;;10.90;99.90;;;;;;5146683;27;20220;-51
2023/12/22 06:46:20;;;;;;;12.18;1.98;;;10.80;99.90;;;;;;5146133;27;20026;-50
2023/12/22 06:48:46;;;;;;;13.13;1.92;;;10.80;99.90;;;;;;5145826;27;20027;-48
2023/12/22 06:51:28;;;;;;;12.38;1.95;;;10.90;99.90;;;;;;5145803;27;20018;-51
2023/12/22 06:53:57;;;;;;;9.55;1.63;;;10.90;99.90;;;;;;5146873;27;20015;-50
2023/12/22 06:56:24;;;;;;;10.52;1.48;;;10.90;99.90;;;;;;5129310;27;20044;-49
2023/12/22 06:58:50;;;;;;;9.95;1.92;;;10.90;99.90;;;;;;5146571;27;20139;-49
2023/12/22 07:01:31;;;;;;;10.60;2.35;;;10.90;99.90;;;;;;5146459;27;20019;-48
2023/12/22 07:03:57;;;;;;;9.65;1.98;;;10.90;99.90;;;;;;5145947;27;20038;-49
2023/12/22 07:06:23;;;;;;;14.45;2.28;;;10.90;99.90;;;;;;5145713;27;20277;-48
2023/12/22 07:09:11;;;;;;;12.75;1.90;;;10.90;99.90;;;;;;5145370;28;20051;-51
2023/12/22 07:11:40;;;;;;;13.13;2.35;;;10.90;99.90;;;;;;5146565;28;20034;-50
2023/12/22 07:14:06;;;;;;;9.30;2.97;;;10.90;99.90;;;;;;5149951;27;20238;-50
2023/12/22 07:16:32;;;;;;;14.85;2.65;;;10.90;99.90;;;;;;5132486;27;20014;-49
2023/12/22 07:18:58;;;;;;;14.30;7.13;;;10.90;99.90;;;;;;5150832;27;20068;-51
2023/12/22 07:21:24;;;;;;;13.90;2.58;;;11.00;99.90;;;;;;5150899;27;20027;-52
2023/12/22 07:23:49;;;;;;;10.52;2.00;;;11.00;99.90;;;;;;5149635;27;20023;-50
2023/12/22 07:26:15;;;;;;;14.98;2.45;;;10.90;99.90;;;;;;5150744;27;20078;-49
2023/12/22 07:28:41;;;;;;;12.13;2.05;;;10.90;99.90;;;;;;5150838;27;20277;-51
2023/12/22 07:31:06;;;;;;;14.15;2.20;;;11.00;99.90;;;;;;5150508;27;20038;-52
2023/12/22 07:33:32;;;;;;;12.60;2.05;;;11.00;99.90;;;;;;5150292;27;20058;-49
2023/12/22 07:35:58;;;;;;;17.48;2.17;;;11.00;99.90;;;;;;5150617;27;20019;-51
2023/12/22 07:38:23;;;;;;;14.95;2.40;;;11.00;99.90;;;;;;5149550;27;20304;-51
2023/12/22 07:40:49;;;;;;;16.33;2.58;;;11.00;99.90;;;;;;5150523;27;20035;-51
2023/12/22 07:43:15;;;;;;;8.75;1.90;;;11.00;99.90;;;;;;5150201;27;20030;-51
2023/12/22 07:45:41;;;;;;;9.73;2.72;;;11.00;99.90;;;;;;5150269;27;20015;-51
2023/12/22 07:48:07;;;;;;;14.40;3.33;;;11.00;99.90;;;;;;5131791;27;20015;-51
2023/12/22 07:50:33;;;;;;;11.63;1.60;;;11.00;99.90;;;;;;5150335;27;20034;-51
2023/12/22 07:52:58;;;;;;;16.35;2.42;;;11.00;99.90;;;;;;5148977;27;20019;-49
2023/12/22 07:55:24;;;;;;;7.15;1.92;;;11.00;99.90;;;;;;5150022;27;20090;-49
2023/12/22 07:57:50;;;;;;;10.50;2.03;;;11.00;99.90;;;;;;5131722;27;20305;-49
2023/12/22 08:00:17;;;;;;;10.85;2.30;;;11.10;99.90;;;;;;5150133;27;20084;-49
2023/12/22 08:02:43;;;;;;;19.42;2.13;;;11.10;99.90;;;;;;5131708;27;20181;-49
2023/12/22 08:05:08;;;;;;;11.07;1.90;;;11.00;99.90;;;;;;5148912;27;20023;-49
2023/12/22 08:07:34;;;;;;;9.48;1.90;;;11.10;99.90;;;;;;5148368;27;20026;-50
2023/12/22 08:10:01;;;;;;;11.15;1.92;;;11.00;99.90;;;;;;5148555;27;20031;-51
2023/12/22 08:12:28;;;;;;;11.13;1.90;;;11.00;99.90;;;;;;5149825;27;20035;-50
2023/12/22 08:14:53;;;;;;;10.50;2.20;;;11.00;99.90;;;;;;5149530;27;20034;-51
2023/12/22 08:17:19;;;;;;;14.57;2.55;;;11.00;99.90;;;;;;5148551;27;20019;-51
2023/12/22 08:19:45;;;;;;;12.52;2.42;;;11.00;99.90;;;;;;5149244;27;20027;-52
2023/12/22 08:22:12;;;;;;;9.57;1.75;;;10.90;99.90;;;;;;5149755;27;20018;-52
2023/12/22 08:24:39;;;;;;;16.17;2.00;;;10.90;99.90;;;;;;5130792;27;20038;-51
2023/12/22 08:27:06;;;;;;;16.77;2.15;;;10.80;99.90;;;;;;5149203;27;20031;-52
2023/12/22 08:29:32;;;;;;;15.55;2.40;;;10.80;99.90;;;;;;5148340;27;20084;-51
2023/12/22 08:31:58;;;;;;;12.93;2.35;;;10.80;99.90;;;;;;5149258;27;20285;-52
2023/12/22 08:34:24;;;;;;;12.45;2.35;;;10.70;99.90;;;;;;5149398;27;20029;-52
2023/12/22 08:36:49;;;;;;;14.45;2.28;;;10.70;99.90;;;;;;5149028;27;20090;-53
2023/12/22 08:39:15;;;;;;;15.60;2.20;;;10.70;99.90;;;;;;5148150;27;20023;-51
2023/12/22 08:41:41;;;;;;;13.52;2.05;;;10.70;99.90;;;;;;5149309;27;20031;-51
2023/12/22 08:44:07;;;;;;;12.38;2.30;;;10.70;99.90;;;;;;5148524;27;20011;-52
2023/12/22 08:46:33;;;;;;;13.68;2.65;;;10.80;99.90;;;;;;5147831;27;20038;-52
2023/12/22 08:48:59;;;;;;;11.20;1.80;;;10.80;99.90;;;;;;5130693;27;20047;-49
2023/12/22 08:51:26;;;;;;;47.10;15.18;;;10.80;99.90;;;;;;5148406;27;20078;-48
2023/12/22 08:53:52;;;;;;;34.17;9.63;;;10.90;99.90;;;;;;5147533;27;20093;-49
2023/12/22 08:56:18;;;;;;;97.00;27.42;;;10.90;99.90;;;;;;5148745;27;20361;-49
2023/12/22 08:58:43;;;;;;;26.73;5.30;;;10.90;99.90;;;;;;5130475;27;20031;-52
2023/12/22 09:01:15;;;;;;;70.55;16.55;;;11.00;99.90;;;;;;5148730;27;20031;-51
2023/12/22 09:03:45;;;;;;;50.83;10.95;;;10.90;99.90;;;;;;5148603;27;20031;-51
2023/12/22 09:06:13;;;;;;;16.00;3.83;;;10.90;99.90;;;;;;5149251;27;20059;-51
2023/12/22 09:08:39;;;;;;;16.80;3.95;;;10.90;99.90;;;;;;5147904;27;20046;-52
2023/12/22 09:11:05;;;;;;;40.25;7.03;;;10.90;99.90;;;;;;5148391;27;20019;-50
2023/12/22 09:13:30;;;;;;;17.40;2.55;;;10.90;99.90;;;;;;5147510;27;20072;-52
2023/12/22 09:15:57;;;;;;;16.45;3.00;;;10.90;99.90;;;;;;5130063;27;20055;-49
2023/12/22 09:18:23;;;;;;;9.98;1.77;;;10.90;99.90;;;;;;5148623;27;20068;-52
2023/12/22 09:20:49;;;;;;;15.90;2.70;;;10.90;99.90;;;;;;5147087;27;20031;-51
2023/12/22 09:23:14;;;;;;;13.38;3.20;;;10.80;99.90;;;;;;5147633;27;20098;-50
2023/12/22 09:25:40;;;;;;;16.50;2.63;;;10.80;99.90;;;;;;5148161;27;20292;-52
2023/12/22 09:28:06;;;;;;;16.38;2.60;;;10.80;99.90;;;;;;5148201;27;20214;-51
2023/12/22 09:30:32;;;;;;;12.77;2.33;;;10.80;99.90;;;;;;5148177;27;20035;-50
2023/12/22 09:32:58;;;;;;;13.13;2.80;;;10.80;99.90;;;;;;5148134;27;20015;-52
2023/12/22 09:35:25;;;;;;;13.10;2.42;;;10.80;99.90;;;;;;5146977;27;20195;-52
2023/12/22 09:37:51;;;;;;;12.70;2.55;;;10.80;99.90;;;;;;5146643;27;20296;-50
2023/12/22 09:40:16;;;;;;;14.10;3.08;;;10.90;99.90;;;;;;5147908;27;20030;-52
2023/12/22 09:42:43;;;;;;;11.25;2.78;;;10.90;99.90;;;;;;5147456;27;20034;-51
2023/12/22 09:45:11;;;;;;;7.80;1.60;;;10.90;99.90;;;;;;5146907;27;20075;-51
2023/12/22 09:47:37;;;;;;;17.67;3.28;;;10.90;99.90;;;;;;5146479;27;20346;-49
2023/12/22 09:50:05;;;;;;;11.35;2.22;;;11.00;99.90;;;;;;5129940;27;20023;-49
2023/12/22 09:52:31;;;;;;;24.08;3.25;;;11.00;99.90;;;;;;5146294;27;20181;-49
2023/12/22 09:54:56;;;;;;;10.73;2.30;;;11.00;99.90;;;;;;5129367;27;20053;-52
2023/12/22 09:57:23;;;;;;;22.00;2.72;;;11.00;99.90;;;;;;5146540;27;20296;-51
2023/12/22 09:59:49;;;;;;;14.68;2.40;;;11.10;99.90;;;;;;5129441;27;20076;-51
2023/12/22 10:02:14;;;;;;;17.95;2.50;;;11.10;99.90;;;;;;5112342;27;20022;-52
2023/12/22 10:04:40;;;;;;;12.38;1.92;;;11.10;99.90;;;;;;5146163;27;20039;-49
2023/12/22 10:07:06;;;;;;;9.98;1.85;;;11.10;99.90;;;;;;5147323;27;20023;-50
2023/12/22 10:09:32;;;;;;;16.50;3.65;;;11.10;99.90;;;;;;5147081;27;20053;-50
2023/12/22 10:11:58;;;;;;;15.10;2.47;;;11.10;99.90;;;;;;5146605;27;20120;-51
2023/12/22 10:14:23;;;;;;;10.45;1.98;;;11.20;99.90;;;;;;5147288;27;20068;-50
2023/12/22 10:16:50;;;;;;;12.55;2.28;;;11.10;99.90;;;;;;5146104;27;20027;-50
2023/12/22 10:19:15;;;;;;;9.65;2.05;;;11.10;99.90;;;;;;5145849;27;20030;-47
2023/12/22 10:21:41;;;;;;;13.20;3.10;;;11.20;99.90;;;;;;5146102;27;20251;-49
2023/12/22 10:24:07;;;;;;;10.98;2.10;;;11.20;99.90;;;;;;5146834;27;20097;-47
2023/12/22 10:26:33;;;;;;;16.60;2.70;;;11.10;99.90;;;;;;5146417;27;20108;-47
2023/12/22 10:28:58;;;;;;;15.30;3.58;;;11.20;99.90;;;;;;5147006;27;20098;-51
2023/12/22 10:31:25;;;;;;;11.55;2.63;;;11.20;99.90;;;;;;5146832;27;20018;-50
2023/12/22 10:33:51;;;;;;;12.18;2.10;;;11.20;99.90;;;;;;5146764;27;20030;-50
2023/12/22 10:36:17;;;;;;;13.93;2.28;;;11.30;99.90;;;;;;5128553;27;20065;-48
2023/12/22 10:38:43;;;;;;;11.50;2.20;;;11.30;99.90;;;;;;5146643;27;20090;-50
2023/12/22 10:41:08;;;;;;;14.85;2.33;;;11.30;99.90;;;;;;5146527;27;20023;-48
2023/12/22 10:43:38;;;;;;;9.30;1.98;;;11.30;99.90;;;;;;5145176;27;20166;-53
2023/12/22 10:46:04;;;;;;;11.77;2.78;;;11.40;99.90;;;;;;5128315;27;20203;-47
2023/12/22 10:48:30;;;;;;;11.15;1.70;;;11.40;99.90;;;;;;5146033;27;20023;-50
2023/12/22 10:50:56;;;;;;;10.75;1.92;;;11.30;99.90;;;;;;5146135;27;20084;-49
2023/12/22 10:53:23;;;;;;;11.68;3.75;;;11.30;99.90;;;;;;5145303;27;20030;-50
2023/12/22 10:55:50;;;;;;;13.50;2.30;;;11.40;99.90;;;;;;5145412;27;20210;-50
2023/12/22 10:58:16;;;;;;;11.55;3.65;;;11.40;99.90;;;;;;5146508;27;20019;-48
2023/12/22 11:00:42;;;;;;;15.68;2.90;;;11.30;99.90;;;;;;5145424;27;20023;-47
2023/12/22 11:03:08;;;;;;;16.20;2.80;;;11.30;99.90;;;;;;5146104;27;20015;-48
2023/12/22 11:05:34;;;;;;;15.18;2.30;;;11.30;99.90;;;;;;5127986;28;20165;-51
2023/12/22 11:08:02;;;;;;;10.27;2.08;;;11.30;99.90;;;;;;5144971;27;20193;-47
2023/12/22 11:10:28;;;;;;;10.93;2.70;;;11.30;99.90;;;;;;5144919;28;20047;-51
2023/12/22 11:12:54;;;;;;;15.20;3.25;;;11.40;99.90;;;;;;5145214;28;20059;-48
2023/12/22 11:15:20;;;;;;;15.65;2.75;;;11.40;99.90;;;;;;5144971;28;20027;-51
2023/12/22 11:17:45;;;;;;;10.50;3.40;;;11.40;99.90;;;;;;5144567;28;20037;-49
2023/12/22 11:20:13;;;;;;;13.10;2.95;;;11.40;99.90;;;;;;5128034;28;20061;-49
2023/12/22 11:22:39;;;;;;;13.95;3.45;;;11.40;99.90;;;;;;5146277;28;20046;-47
2023/12/22 11:25:05;;;;;;;16.10;4.10;;;11.40;99.90;;;;;;5146225;28;20169;-50
2023/12/22 11:27:31;;;;;;;15.07;2.83;;;11.40;99.90;;;;;;5111413;28;20046;-48
2023/12/22 11:29:56;;;;;;;13.82;2.88;;;11.30;99.90;;;;;;5146038;28;20023;-49
2023/12/22 11:32:22;;;;;;;59.83;34.63;;;11.30;99.90;;;;;;5145029;28;20164;-47
2023/12/22 11:34:48;;;;;;;15.68;2.92;;;11.30;99.90;;;;;;5145976;27;20047;-46
2023/12/22 11:37:15;;;;;;;13.23;2.30;;;11.30;99.90;;;;;;5145869;28;20023;-46
2023/12/22 11:39:44;;;;;;;15.98;3.22;;;11.40;99.90;;;;;;5146026;28;20023;-47
2023/12/22 11:42:16;;;;;;;14.52;2.85;;;11.40;99.90;;;;;;5127437;28;20027;-47
2023/12/22 11:44:42;;;;;;;13.20;3.95;;;11.40;99.90;;;;;;5127794;28;20265;-47
2023/12/22 11:47:08;;;;;;;19.65;3.25;;;11.40;99.90;;;;;;5144729;28;20068;-46
2023/12/22 11:49:35;;;;;;;12.45;2.78;;;11.40;99.90;;;;;;5145401;28;20129;-47
2023/12/22 11:52:28;;;;;;;20.13;2.67;;;11.50;99.90;;;;;;5145504;28;20023;-46
2023/12/22 11:54:54;;;;;;;11.50;2.55;;;11.40;99.90;;;;;;5144211;28;20070;-46
2023/12/22 11:57:31;;;;;;;18.88;3.25;;;11.40;99.90;;;;;;5144617;28;20069;-47
2023/12/22 12:00:15;;;;;;;12.57;3.65;;;11.30;99.90;;;;;;5146309;27;20094;-46
2023/12/22 12:02:41;;;;;;;16.80;3.45;;;11.40;99.90;;;;;;5148345;27;20054;-46
2023/12/22 12:05:07;;;;;;;7.53;2.00;;;11.50;99.90;;;;;;5148518;27;20170;-46
2023/12/22 12:07:47;;;;;;;11.75;2.08;;;11.60;99.90;;;;;;5149371;27;20027;-47
2023/12/22 12:10:14;;;;;;;14.15;2.78;;;11.70;99.90;;;;;;5149266;27;20121;-46
2023/12/22 12:12:40;;;;;;;15.95;2.42;;;12.00;99.90;;;;;;5149396;27;20236;-47
2023/12/22 12:15:10;;;;;;;10.48;2.25;;;12.00;99.90;;;;;;5149147;27;20015;-46
2023/12/22 12:17:42;;;;;;;10.25;1.95;;;11.90;99.90;;;;;;5147864;27;20019;-46
2023/12/22 12:20:10;;;;;;;11.30;2.53;;;12.00;99.90;;;;;;5131394;27;20031;-46
2023/12/22 12:22:39;;;;;;;15.68;2.33;;;11.90;99.90;;;;;;5147643;27;20027;-47
2023/12/22 12:25:10;;;;;;;18.33;3.72;;;11.80;99.90;;;;;;5131182;27;20027;-47
2023/12/22 12:27:36;;;;;;;11.85;3.42;;;12.00;99.90;;;;;;5149031;27;20027;-47
2023/12/22 12:30:14;;;;;;;10.13;2.50;;;11.90;99.90;;;;;;5148219;27;20027;-47
2023/12/22 12:32:44;;;;;;;10.18;2.92;;;11.80;99.90;;;;;;5149036;27;20299;-48
2023/12/22 12:35:10;;;;;;;;;;;11.70;99.90;;;;;;5148234;27;20029;-47
2023/12/22 12:37:36;;;;;;;13.57;2.20;;;11.70;99.90;;;;;;5148746;27;19907;-47